createdAt,value
2022-09-10T00:01:40.771Z,80.34
2022-09-10T00:04:11.451Z,80.21
2022-09-10T00:06:40.640Z,80.08
2022-09-10T00:09:09.755Z,79.71
2022-09-10T00:11:41.099Z,79.45
2022-09-10T00:14:17.365Z,79.18
2022-09-10T00:16:47.158Z,79.65
2022-09-10T00:19:15.959Z,79.15
2022-09-10T00:21:45.201Z,79.27
2022-09-10T00:24:13.901Z,79.21
2022-09-10T00:26:42.575Z,79.28
2022-09-10T00:29:13.004Z,79.29
2022-09-10T00:31:42.594Z,79.12
2022-09-10T00:34:14.347Z,79.03
2022-09-10T00:36:44.319Z,78.93
2022-09-10T00:39:16.902Z,78.82
2022-09-10T00:41:47.703Z,78.68
2022-09-10T00:44:54.333Z,78.44
2022-09-10T00:47:27.676Z,78.29
2022-09-10T00:50:06.366Z,78.49
2022-09-10T00:52:39.566Z,78.41
2022-09-10T00:55:11.096Z,78.89
2022-09-10T00:57:40.994Z,78.98
2022-09-10T01:00:12.260Z,78.82
2022-09-10T01:02:42.041Z,78.95
2022-09-10T01:05:12.995Z,78.79
2022-09-10T01:07:42.853Z,78.61
2022-09-10T01:10:15.557Z,79.16
2022-09-10T01:12:59.399Z,78.99
2022-09-10T01:15:35.402Z,78.48
2022-09-10T01:18:17.721Z,78.85
2022-09-10T01:21:11.588Z,78.31
2022-09-10T01:24:22.422Z,78.80
2022-09-10T01:27:32.093Z,78.43
2022-09-10T01:30:06.777Z,78.49
2022-09-10T01:33:00.284Z,78.82
2022-09-10T01:35:36.489Z,78.57
2022-09-10T01:38:10.005Z,78.50
2022-09-10T01:40:38.955Z,78.70
2022-09-10T01:43:09.841Z,78.91
2022-09-10T01:45:48.195Z,78.51
2022-09-10T01:48:40.650Z,78.76
2022-09-10T01:51:19.846Z,78.72
2022-09-10T01:54:12.083Z,78.67
2022-09-10T01:56:45.753Z,78.80
2022-09-10T01:59:23.082Z,78.82
2022-09-10T02:01:59.348Z,79.35
2022-09-10T02:04:29.048Z,79.19
2022-09-10T02:06:58.291Z,79.39
2022-09-10T02:09:27.693Z,79.65
2022-09-10T02:11:56.863Z,79.40
2022-09-10T02:14:25.452Z,79.39
2022-09-10T02:16:58.764Z,79.44
2022-09-10T02:19:28.174Z,79.37
2022-09-10T02:21:58.924Z,79.56
2022-09-10T02:24:27.364Z,79.63
2022-09-10T02:26:55.828Z,79.29
2022-09-10T02:29:24.526Z,79.27
2022-09-10T02:31:52.945Z,79.38
2022-09-10T02:34:23.099Z,79.41
2022-09-10T02:36:51.438Z,79.22
2022-09-10T02:39:20.049Z,79.24
2022-09-10T02:41:48.409Z,79.49
2022-09-10T02:44:16.780Z,79.37
2022-09-10T02:46:45.384Z,79.64
2022-09-10T02:49:13.763Z,79.32
2022-09-10T02:51:44.617Z,79.55
2022-09-10T02:54:12.974Z,79.52
2022-09-10T02:56:41.281Z,79.60
2022-09-10T02:59:09.761Z,79.83
2022-09-10T03:01:38.656Z,79.89
2022-09-10T03:04:08.091Z,79.98
2022-09-10T03:06:37.013Z,79.71
2022-09-10T03:09:06.827Z,79.76
2022-09-10T03:11:40.760Z,80.18
2022-09-10T03:14:12.188Z,80.10
2022-09-10T03:16:41.209Z,79.94
2022-09-10T03:19:10.490Z,80.41
2022-09-10T03:21:41.436Z,80.06
2022-09-10T03:24:15.182Z,80.07
2022-09-10T03:26:44.479Z,80.49
2022-09-10T03:29:15.565Z,80.35
2022-09-10T03:31:46.444Z,80.17
2022-09-10T03:34:15.346Z,80.23
2022-09-10T03:36:43.760Z,80.55
2022-09-10T03:39:15.087Z,80.64
2022-09-10T03:41:45.409Z,80.50
2022-09-10T03:44:13.936Z,80.69
2022-09-10T03:46:42.435Z,80.75
2022-09-10T03:49:11.013Z,80.76
2022-09-10T03:51:39.435Z,80.92
2022-09-10T03:54:07.755Z,80.88
2022-09-10T03:56:37.542Z,81.02
2022-09-10T03:59:05.887Z,81.08
2022-09-10T04:01:34.227Z,81.28
2022-09-10T04:04:03.306Z,81.30
2022-09-10T04:06:33.313Z,81.34
2022-09-10T04:09:02.710Z,81.18
2022-09-10T04:11:31.053Z,81.24
2022-09-10T04:14:01.685Z,81.18
2022-09-10T04:16:32.152Z,81.31
2022-09-10T04:19:01.126Z,80.95
2022-09-10T04:21:29.483Z,81.18
2022-09-10T04:24:00.307Z,81.00
2022-09-10T04:26:28.727Z,80.90
2022-09-10T04:28:57.306Z,81.14
2022-09-10T04:31:27.084Z,80.89
2022-09-10T04:33:55.392Z,80.99
2022-09-10T04:36:23.744Z,80.96
2022-09-10T04:38:52.118Z,81.18
2022-09-10T04:41:20.440Z,81.15
2022-09-10T04:43:49.108Z,81.24
2022-09-10T04:46:17.946Z,80.96
2022-09-10T04:48:47.920Z,81.28
2022-09-10T04:51:18.110Z,81.14
2022-09-10T04:53:47.095Z,81.37
2022-09-10T04:56:15.773Z,81.43
2022-09-10T04:58:44.615Z,81.34
2022-09-10T05:01:13.931Z,81.13
2022-09-10T05:03:42.394Z,80.98
2022-09-10T05:06:12.216Z,81.13
2022-09-10T05:08:40.742Z,80.93
2022-09-10T05:11:09.292Z,80.89
2022-09-10T05:13:37.692Z,80.99
2022-09-10T05:16:06.331Z,81.25
2022-09-10T05:18:34.868Z,81.00
2022-09-10T05:21:05.264Z,81.17
2022-09-10T05:23:35.017Z,81.37
2022-09-10T05:26:03.402Z,81.03
2022-09-10T05:28:31.769Z,80.89
2022-09-10T05:31:00.368Z,80.91
2022-09-10T05:33:28.900Z,81.36
2022-09-10T05:35:57.256Z,81.22
2022-09-10T05:38:26.609Z,81.34
2022-09-10T05:40:57.119Z,81.41
2022-09-10T05:43:25.590Z,81.41
2022-09-10T05:45:54.116Z,81.20
2022-09-10T05:48:22.670Z,81.38
2022-09-10T05:50:51.039Z,81.62
2022-09-10T05:53:19.374Z,81.28
2022-09-10T05:55:47.707Z,81.47
2022-09-10T05:58:17.490Z,81.27
2022-09-10T06:00:46.621Z,81.38
2022-09-10T06:03:15.025Z,81.63
2022-09-10T06:05:50.348Z,81.21
2022-09-10T06:08:20.683Z,81.54
2022-09-10T06:10:57.344Z,81.31
2022-09-10T06:13:27.907Z,81.18
2022-09-10T06:15:56.309Z,81.50
2022-09-10T06:18:24.927Z,81.48
2022-09-10T06:21:03.490Z,81.49
2022-09-10T06:23:32.186Z,81.58
2022-09-10T06:26:04.027Z,81.19
2022-09-10T06:28:35.149Z,81.41
2022-09-10T06:31:05.322Z,81.66
2022-09-10T06:33:35.287Z,81.34
2022-09-10T06:36:04.266Z,81.80
2022-09-10T06:38:34.269Z,81.96
2022-09-10T06:41:05.854Z,82.26
2022-09-10T06:43:38.565Z,82.28
2022-09-10T06:46:32.105Z,82.49
2022-09-10T06:49:00.978Z,82.49
2022-09-10T06:51:29.638Z,82.80
2022-09-10T06:53:57.964Z,83.08
2022-09-10T06:56:26.367Z,83.06
2022-09-10T06:59:01.516Z,83.13
2022-09-10T07:01:31.100Z,83.17
2022-09-10T07:04:02.348Z,83.12
2022-09-10T07:06:33.658Z,83.25
2022-09-10T07:09:02.434Z,83.25
2022-09-10T07:11:32.229Z,83.60
2022-09-10T07:14:02.234Z,83.85
2022-09-10T07:16:30.866Z,83.37
2022-09-10T07:19:00.982Z,83.39
2022-09-10T07:21:30.203Z,83.12
2022-09-10T07:24:01.722Z,83.22
2022-09-10T07:26:30.657Z,83.09
2022-09-10T07:29:01.128Z,83.42
2022-09-10T07:31:31.360Z,83.05
2022-09-10T07:34:00.992Z,83.34
2022-09-10T07:36:30.577Z,83.00
2022-09-10T07:39:01.646Z,83.38
2022-09-10T07:41:31.945Z,83.32
2022-09-10T07:44:01.673Z,83.62
2022-09-10T07:46:30.577Z,83.67
2022-09-10T07:49:00.723Z,84.23
2022-09-10T07:51:32.417Z,84.19
2022-09-10T07:54:01.045Z,84.59
2022-09-10T07:56:32.467Z,84.30
2022-09-10T07:59:02.703Z,84.59
2022-09-10T08:01:31.749Z,84.81
2022-09-10T08:04:00.408Z,84.59
2022-09-10T08:06:28.821Z,84.72
2022-09-10T08:08:57.191Z,84.92
2022-09-10T08:11:25.876Z,84.78
2022-09-10T08:13:56.783Z,84.89
2022-09-10T08:16:27.020Z,84.92
2022-09-10T08:18:56.920Z,84.87
2022-09-10T08:21:25.905Z,84.31
2022-09-10T08:23:55.887Z,84.57
2022-09-10T08:26:25.473Z,84.31
2022-09-10T08:28:55.894Z,84.42
2022-09-10T08:31:27.032Z,84.46
2022-09-10T08:33:56.834Z,84.54
2022-09-10T08:36:25.727Z,84.31
2022-09-10T08:38:59.834Z,83.94
2022-09-10T08:41:40.225Z,83.80
2022-09-10T08:44:16.163Z,83.77
2022-09-10T08:46:49.480Z,83.57
2022-09-10T08:49:27.169Z,83.58
2022-09-10T08:52:02.010Z,83.22
2022-09-10T08:54:38.093Z,82.92
2022-09-10T08:57:16.888Z,82.50
2022-09-10T08:59:50.152Z,82.46
2022-09-10T09:02:47.339Z,81.94
2022-09-10T09:05:17.133Z,82.16
2022-09-10T09:07:47.099Z,82.38
2022-09-10T09:10:21.071Z,82.23
2022-09-10T09:13:02.958Z,82.39
2022-09-10T09:15:41.621Z,82.08
2022-09-10T09:18:21.521Z,81.71
2022-09-10T09:20:55.861Z,81.76
2022-09-10T09:23:26.415Z,81.50
2022-09-10T09:25:59.560Z,81.21
2022-09-10T09:28:37.047Z,81.24
2022-09-10T09:31:12.890Z,80.98
2022-09-10T09:33:43.175Z,80.99
2022-09-10T09:36:16.825Z,80.81
2022-09-10T09:38:50.790Z,80.86
2022-09-10T09:41:26.055Z,80.95
2022-09-10T09:43:59.912Z,80.97
2022-09-10T09:46:28.249Z,80.78
2022-09-10T09:49:00.970Z,80.86
2022-09-10T09:51:35.594Z,80.79
2022-09-10T09:57:00.027Z,80.55
2022-09-10T09:59:30.486Z,80.74
2022-09-10T10:02:05.518Z,80.56
2022-09-10T10:04:41.515Z,80.30
2022-09-10T10:07:12.579Z,80.52
2022-09-10T10:09:44.551Z,80.44
2022-09-10T10:12:21.115Z,80.27
2022-09-10T10:14:51.400Z,80.12
2022-09-10T10:17:38.726Z,79.87
2022-09-10T10:20:12.094Z,79.84
2022-09-10T10:22:41.460Z,80.15
2022-09-10T10:25:38.232Z,80.53
2022-09-10T10:28:16.519Z,81.27
2022-09-10T10:30:45.374Z,81.03
2022-09-10T10:33:19.428Z,81.55
2022-09-10T10:35:51.652Z,81.46
2022-09-10T10:38:30.519Z,81.42
2022-09-10T10:41:38.694Z,81.45
2022-09-10T10:44:26.327Z,81.10
2022-09-10T10:47:05.903Z,80.85
2022-09-10T10:49:50.513Z,80.88
2022-09-10T10:52:27.720Z,80.57
2022-09-10T10:55:10.072Z,80.45
2022-09-10T10:57:56.456Z,80.24
2022-09-10T11:00:25.714Z,79.75
2022-09-10T11:03:03.524Z,79.89
2022-09-10T11:05:38.561Z,79.53
2022-09-10T11:08:15.117Z,79.39
2022-09-10T11:10:47.997Z,78.92
2022-09-10T11:13:23.047Z,78.71
2022-09-10T11:15:59.450Z,78.08
2022-09-10T11:18:33.970Z,78.13
2022-09-10T11:21:11.695Z,77.51
2022-09-10T11:23:47.804Z,77.43
2022-09-10T11:26:23.015Z,77.37
2022-09-10T11:29:00.549Z,77.20
2022-09-10T11:31:33.783Z,76.82
2022-09-10T11:34:06.946Z,76.24
2022-09-10T11:36:43.813Z,76.09
2022-09-10T11:39:20.480Z,75.78
2022-09-10T11:41:52.001Z,75.35
2022-09-10T11:44:48.536Z,74.75
2022-09-10T11:47:22.424Z,74.86
2022-09-10T11:49:55.705Z,74.75
2022-09-10T11:52:26.064Z,74.52
2022-09-10T11:54:57.305Z,74.16
2022-09-10T11:57:35.164Z,73.85
2022-09-10T12:00:12.166Z,73.87
2022-09-10T12:03:03.563Z,73.35
2022-09-10T12:05:40.579Z,73.30
2022-09-10T12:08:19.895Z,73.11
2022-09-10T12:11:04.222Z,72.68
2022-09-10T12:13:33.470Z,72.54
2022-09-10T12:16:09.079Z,72.11
2022-09-10T12:18:45.017Z,71.86
2022-09-10T12:21:27.968Z,71.62
2022-09-10T12:23:57.809Z,71.46
2022-09-10T12:26:27.886Z,71.03
2022-09-10T12:29:02.255Z,70.66
2022-09-10T12:32:09.412Z,69.29
2022-09-10T12:34:38.117Z,69.74
2022-09-10T12:37:26.458Z,68.98
2022-09-10T12:40:32.529Z,68.72
2022-09-10T12:43:40.845Z,68.21
2022-09-10T12:46:19.677Z,68.11
2022-09-10T12:48:50.976Z,67.82
2022-09-10T12:51:33.498Z,67.04
2022-09-10T12:54:20.305Z,66.48
2022-09-10T12:57:10.758Z,66.17
2022-09-10T13:00:23.148Z,65.49
2022-09-10T13:02:56.283Z,65.93
2022-09-10T13:05:29.945Z,65.59
2022-09-10T13:08:08.223Z,65.55
2022-09-10T13:10:37.421Z,65.39
2022-09-10T13:13:23.409Z,65.29
2022-09-10T13:15:54.998Z,64.91
2022-09-10T13:18:27.054Z,64.93
2022-09-10T13:20:55.712Z,64.98
2022-09-10T13:23:47.540Z,64.52
2022-09-10T13:26:48.478Z,63.98
2022-09-10T13:29:34.272Z,64.18
2022-09-10T13:32:09.328Z,64.53
2022-09-10T13:35:17.054Z,63.47
2022-09-10T13:38:21.153Z,63.27
2022-09-10T13:41:06.478Z,63.46
2022-09-10T13:44:01.341Z,62.74
2022-09-10T13:46:37.440Z,62.60
2022-09-10T13:49:15.247Z,62.03
2022-09-10T13:51:51.210Z,62.06
2022-09-10T13:54:33.091Z,61.43
2022-09-10T13:57:07.153Z,61.51
2022-09-10T13:59:38.006Z,61.21
2022-09-10T14:02:06.479Z,60.95
2022-09-10T14:04:40.898Z,60.83
2022-09-10T14:07:16.159Z,60.83
2022-09-10T14:09:47.118Z,60.65
2022-09-10T14:12:17.776Z,60.83
2022-09-10T14:14:51.328Z,60.36
2022-09-10T14:17:23.756Z,59.94
2022-09-10T14:19:59.121Z,59.69
2022-09-10T14:22:28.959Z,59.03
2022-09-10T14:24:59.807Z,58.83
2022-09-10T14:27:31.039Z,58.60
2022-09-10T14:30:23.022Z,57.52
2022-09-10T14:32:52.976Z,58.21
2022-09-10T14:35:42.929Z,57.60
2022-09-10T14:38:29.064Z,57.62
2022-09-10T14:41:03.410Z,58.46
2022-09-10T14:43:38.065Z,58.88
2022-09-10T14:46:09.102Z,58.55
2022-09-10T14:48:41.017Z,58.31
2022-09-10T14:51:17.575Z,57.91
2022-09-10T14:53:48.483Z,57.60
2022-09-10T14:56:28.596Z,57.46
2022-09-10T14:59:00.845Z,57.42
2022-09-10T15:01:30.528Z,57.46
2022-09-10T15:04:00.490Z,57.23
2022-09-10T15:06:31.701Z,57.33
2022-09-10T15:09:00.878Z,57.00
2022-09-10T15:11:29.857Z,56.72
2022-09-10T15:13:59.419Z,56.71
2022-09-10T15:16:31.008Z,56.89
2022-09-10T15:18:59.452Z,57.01
2022-09-10T15:21:28.082Z,57.21
2022-09-10T15:23:58.069Z,57.57
2022-09-10T15:26:26.546Z,57.80
2022-09-10T15:28:54.864Z,57.63
2022-09-10T15:31:23.711Z,57.69
2022-09-10T15:33:53.232Z,57.78
2022-09-10T15:36:22.457Z,57.94
2022-09-10T15:38:53.885Z,57.92
2022-09-10T15:41:23.975Z,57.88
2022-09-10T15:43:54.226Z,57.74
2022-09-10T15:46:25.750Z,57.77
2022-09-10T15:48:55.637Z,57.36
2022-09-10T15:51:25.037Z,56.92
2022-09-10T15:53:54.927Z,56.25
2022-09-10T15:56:26.033Z,55.43
2022-09-10T15:58:56.166Z,55.32
2022-09-10T16:01:29.410Z,55.14
2022-09-10T16:03:59.232Z,54.72
2022-09-10T16:06:28.480Z,54.76
2022-09-10T16:09:02.032Z,54.81
2022-09-10T16:11:34.790Z,55.00
2022-09-10T16:14:06.809Z,54.99
2022-09-10T16:16:37.208Z,54.84
2022-09-10T16:19:06.744Z,54.64
2022-09-10T16:21:37.567Z,54.66
2022-09-10T16:24:07.555Z,54.68
2022-09-10T16:26:39.859Z,54.70
2022-09-10T16:29:13.348Z,54.76
2022-09-10T16:31:42.944Z,54.69
2022-09-10T16:34:13.487Z,54.47
2022-09-10T16:36:41.863Z,54.72
2022-09-10T16:39:12.870Z,54.89
2022-09-10T16:41:44.880Z,55.33
2022-09-10T16:44:15.281Z,55.28
2022-09-10T16:46:44.236Z,55.71
2022-09-10T16:49:13.904Z,55.97
2022-09-10T16:52:12.033Z,56.16
2022-09-10T16:54:41.921Z,56.42
2022-09-10T16:57:11.615Z,56.47
2022-09-10T16:59:40.052Z,56.82
2022-09-10T17:02:08.451Z,56.84
2022-09-10T17:04:36.803Z,57.09
2022-09-10T17:07:05.331Z,57.33
2022-09-10T17:09:33.737Z,57.53
2022-09-10T17:12:02.462Z,57.70
2022-09-10T17:14:32.340Z,57.80
2022-09-10T17:17:00.696Z,58.02
2022-09-10T17:19:29.340Z,58.02
2022-09-10T17:21:57.852Z,58.27
2022-09-10T17:24:27.967Z,58.49
2022-09-10T17:26:56.684Z,58.68
2022-09-10T17:29:26.449Z,59.05
2022-09-10T17:31:57.404Z,59.10
2022-09-10T17:34:27.190Z,59.31
2022-09-10T17:36:56.313Z,59.65
2022-09-10T17:39:28.134Z,59.69
2022-09-10T17:41:56.795Z,60.22
2022-09-10T17:44:25.823Z,60.19
2022-09-10T17:46:55.151Z,60.17
2022-09-10T17:49:25.578Z,60.28
2022-09-10T17:51:54.336Z,60.50
2022-09-10T17:54:23.405Z,60.85
2022-09-10T17:56:51.833Z,61.10
2022-09-10T17:59:21.914Z,61.18
2022-09-10T18:01:50.290Z,61.56
2022-09-10T18:04:21.071Z,61.96
2022-09-10T18:06:52.568Z,62.25
2022-09-10T18:09:21.978Z,62.60
2022-09-10T18:11:50.564Z,62.75
2022-09-10T18:14:24.413Z,63.07
2022-09-10T18:16:53.970Z,63.18
2022-09-10T18:19:22.924Z,63.36
2022-09-10T18:21:52.630Z,63.54
2022-09-10T18:24:24.166Z,63.53
2022-09-10T18:26:54.673Z,63.39
2022-09-10T18:29:25.254Z,63.58
2022-09-10T18:31:55.875Z,63.87
2022-09-10T18:34:27.740Z,64.47
2022-09-10T18:36:59.858Z,64.82
2022-09-10T18:39:30.070Z,65.23
2022-09-10T18:41:58.916Z,65.81
2022-09-10T18:44:29.453Z,66.16
2022-09-10T18:46:57.797Z,66.37
2022-09-10T18:49:27.375Z,66.58
2022-09-10T18:51:57.713Z,66.65
2022-09-10T18:54:28.744Z,66.71
2022-09-10T18:56:59.435Z,66.94
2022-09-10T18:59:27.995Z,67.21
2022-09-10T19:01:56.899Z,67.15
2022-09-10T19:04:28.202Z,67.19
2022-09-10T19:06:58.921Z,67.45
2022-09-10T19:09:28.983Z,67.45
2022-09-10T19:11:59.198Z,67.58
2022-09-10T19:14:29.427Z,67.79
2022-09-10T19:16:59.454Z,67.88
2022-09-10T19:19:30.069Z,67.94
2022-09-10T19:22:03.786Z,67.75
2022-09-10T19:27:21.348Z,68.12
2022-09-10T19:29:50.318Z,68.35
2022-09-10T19:32:19.771Z,68.22
2022-09-10T19:34:50.781Z,68.01
2022-09-10T19:37:20.763Z,68.19
2022-09-10T19:39:49.192Z,68.28
2022-09-10T19:42:17.819Z,68.36
2022-09-10T19:44:46.454Z,68.23
2022-09-10T19:47:14.837Z,68.56
2022-09-10T19:49:43.582Z,68.35
2022-09-10T19:52:12.028Z,68.71
2022-09-10T19:54:41.859Z,69.12
2022-09-10T19:57:11.552Z,69.49
2022-09-10T19:59:41.328Z,69.71
2022-09-10T20:02:10.873Z,69.90
2022-09-10T20:04:39.276Z,70.11
2022-09-10T20:07:10.556Z,70.20
2022-09-10T20:09:40.050Z,69.90
2022-09-10T20:12:16.377Z,70.10
2022-09-10T20:14:44.830Z,69.80
2022-09-10T20:17:13.650Z,69.41
2022-09-10T20:19:42.201Z,69.24
2022-09-10T20:22:12.039Z,69.14
2022-09-10T20:24:41.527Z,69.33
2022-09-10T20:27:12.691Z,69.21
2022-09-10T20:29:43.299Z,69.17
2022-09-10T20:32:12.907Z,69.21
2022-09-10T20:34:41.666Z,69.18
2022-09-10T20:37:10.764Z,69.10
2022-09-10T20:39:42.238Z,69.03
2022-09-10T20:42:12.367Z,69.16
2022-09-10T20:44:40.761Z,69.29
2022-09-10T20:47:09.165Z,69.37
2022-09-10T20:49:38.313Z,69.32
2022-09-10T20:52:08.054Z,69.49
2022-09-10T20:54:36.547Z,69.17
2022-09-10T20:57:05.185Z,69.37
2022-09-10T20:59:34.932Z,69.20
2022-09-10T21:02:03.731Z,69.03
2022-09-10T21:04:33.499Z,68.93
2022-09-10T21:07:02.459Z,68.50
2022-09-10T21:09:30.992Z,68.47
2022-09-10T21:11:59.842Z,68.47
2022-09-10T21:14:28.323Z,68.10
2022-09-10T21:16:58.085Z,67.79
2022-09-10T21:19:27.322Z,67.81
2022-09-10T21:21:55.697Z,67.47
2022-09-10T21:24:24.339Z,67.84
2022-09-10T21:26:53.618Z,67.78
2022-09-10T21:29:23.074Z,67.69
2022-09-10T21:31:53.264Z,67.83
2022-09-10T21:34:23.104Z,67.82
2022-09-10T21:36:51.742Z,68.15
2022-09-10T21:39:20.138Z,68.22
2022-09-10T21:41:50.697Z,68.44
2022-09-10T21:44:21.990Z,68.50
2022-09-10T21:46:51.035Z,68.85
2022-09-10T21:49:21.604Z,68.96
2022-09-10T21:51:52.089Z,69.04
2022-09-10T21:54:22.239Z,69.46
2022-09-10T21:56:51.551Z,69.25
2022-09-10T21:59:21.389Z,69.45
2022-09-10T22:01:50.432Z,69.64
2022-09-10T22:04:22.758Z,69.76
2022-09-10T22:06:53.940Z,69.66
2022-09-10T22:09:22.714Z,69.91
2022-09-10T22:11:54.300Z,69.65
2022-09-10T22:14:24.169Z,69.85
2022-09-10T22:16:53.743Z,69.71
2022-09-10T22:19:24.664Z,70.30
2022-09-10T22:21:56.777Z,70.52
2022-09-10T22:24:26.144Z,71.03
2022-09-10T22:26:54.699Z,70.82
2022-09-10T22:29:23.621Z,70.93
2022-09-10T22:31:52.331Z,71.03
2022-09-10T22:34:22.562Z,70.85
2022-09-10T22:36:51.100Z,71.49
2022-09-10T22:39:22.797Z,71.75
2022-09-10T22:41:52.294Z,71.97
2022-09-10T22:44:20.858Z,71.88
2022-09-10T22:46:49.600Z,72.23
2022-09-10T22:49:18.141Z,72.12
2022-09-10T22:51:47.047Z,72.24
2022-09-10T22:54:16.601Z,72.44
2022-09-10T22:56:46.570Z,72.42
2022-09-10T22:59:18.482Z,72.24
2022-09-10T23:01:48.399Z,72.27
2022-09-10T23:04:17.523Z,72.34
2022-09-10T23:06:45.953Z,72.06
2022-09-10T23:09:16.182Z,72.00
2022-09-10T23:11:46.795Z,71.76
2022-09-10T23:14:19.275Z,71.36
2022-09-10T23:16:49.949Z,71.38
2022-09-10T23:19:20.350Z,70.80
2022-09-10T23:21:51.164Z,70.40
2022-09-10T23:24:22.006Z,70.31
2022-09-10T23:26:52.057Z,69.96
2022-09-10T23:29:23.393Z,69.96
2022-09-10T23:31:53.400Z,69.72
2022-09-10T23:34:22.525Z,69.68
2022-09-10T23:36:51.364Z,69.45
2022-09-10T23:39:21.469Z,69.43
2022-09-10T23:41:53.768Z,69.56
2022-09-10T23:44:22.717Z,69.46
2022-09-10T23:46:51.178Z,69.22
2022-09-10T23:49:19.720Z,68.87
2022-09-10T23:51:49.181Z,68.87
2022-09-10T23:54:17.842Z,68.70
2022-09-10T23:56:46.432Z,68.81
2022-09-10T23:59:16.492Z,68.73
